Anaconda, Montana
Current Conditions -  °F | °C
As of 4:53 PM on Wednesday 22 Oct 2014 (Local Time) from KBTM Reporting Station
Clear Clear  
Wind Chill: 53°   Ceiling: Unl
Heat Index: 53°   Visibility: 10mi
Dew Point: 29°   Wind: 6mph
Humidity: 40%   Direction: 230°SW
Pressure: 30.03"   Gusts: NA
Location:  46.13°N, 112.94°W
Report Text: KBTM 222253Z AUTO 23005KT 10SM CLR 12/M02 A3003 RMK AO2 SLP163 T01171017
Loading
Personal Weather Stations






























Interactive Weather Map
Tropical Storm Tracking
New forecast layout! Learn more

10-Day Weather Forecast

Advertisements
Track Severe Weather on mobile